createdAt,value
2018-07-02T00:00:47.566Z,0.72
2018-07-02T00:03:17.462Z,0.78
2018-07-02T00:05:58.563Z,0.70
2018-07-02T00:08:28.474Z,0.70
2018-07-02T00:10:58.379Z,0.80
2018-07-02T00:13:28.295Z,0.85
2018-07-02T00:15:58.546Z,0.78
2018-07-02T00:18:28.443Z,0.80
2018-07-02T00:20:58.346Z,1.05
2018-07-02T00:23:28.251Z,0.93
2018-07-02T00:25:58.147Z,0.72
2018-07-02T00:28:28.036Z,0.68
2018-07-02T00:30:57.911Z,1.15
2018-07-02T00:33:27.866Z,0.82
2018-07-02T00:35:57.791Z,0.80
2018-07-02T00:38:27.714Z,0.70
2018-07-02T00:40:57.590Z,0.65
2018-07-02T00:43:27.519Z,1.15
2018-07-02T00:45:57.415Z,0.80
2018-07-02T00:48:27.335Z,0.70
2018-07-02T00:50:57.206Z,0.85
2018-07-02T00:53:27.170Z,0.70
2018-07-02T00:55:57.410Z,0.88
2018-07-02T00:58:27.355Z,1.02
2018-07-02T01:00:57.931Z,1.47
2018-07-02T01:03:27.824Z,0.88
2018-07-02T01:05:57.703Z,0.90
2018-07-02T01:08:27.691Z,0.90
2018-07-02T01:10:57.563Z,0.90
2018-07-02T01:13:27.231Z,1.15
2018-07-02T01:15:57.127Z,0.95
2018-07-02T01:18:26.808Z,0.95
2018-07-02T01:20:57.084Z,0.98
2018-07-02T01:23:26.951Z,1.00
2018-07-02T01:25:56.892Z,0.90
2018-07-02T01:28:26.798Z,1.12
2018-07-02T01:30:56.687Z,0.98
2018-07-02T01:33:26.556Z,1.05
2018-07-02T01:35:56.459Z,1.00
2018-07-02T01:38:26.367Z,0.90
2018-07-02T01:40:56.280Z,1.10
2018-07-02T01:43:26.151Z,0.70
2018-07-02T01:45:56.071Z,0.90
2018-07-02T01:48:25.982Z,0.95
2018-07-02T01:50:55.899Z,0.80
2018-07-02T01:53:26.283Z,0.90
2018-07-02T01:55:56.229Z,0.98
2018-07-02T01:58:26.094Z,0.85
2018-07-02T02:00:56.004Z,1.10
2018-07-02T02:03:25.867Z,0.82
2018-07-02T02:05:55.959Z,0.90
2018-07-02T02:08:25.843Z,1.10
2018-07-02T02:10:55.636Z,1.10
2018-07-02T02:13:25.587Z,0.93
2018-07-02T02:15:55.494Z,1.20
2018-07-02T02:18:25.402Z,1.00
2018-07-02T02:20:55.111Z,0.95
2018-07-02T02:23:25.005Z,0.93
2018-07-02T02:25:54.944Z,0.80
2018-07-02T02:28:24.839Z,1.00
2018-07-02T02:30:54.534Z,0.80
2018-07-02T02:33:24.246Z,1.00
2018-07-02T02:35:54.447Z,0.82
2018-07-02T02:38:24.399Z,1.20
2018-07-02T02:40:54.296Z,0.98
2018-07-02T02:43:24.194Z,1.62
2018-07-02T02:45:54.108Z,1.10
2018-07-02T02:48:24.010Z,1.00
2018-07-02T02:50:53.935Z,0.93
2018-07-02T02:53:23.867Z,0.80
2018-07-02T02:55:53.775Z,1.20
2018-07-02T02:58:23.679Z,0.88
2018-07-02T03:00:53.375Z,0.70
2018-07-02T03:03:23.295Z,0.90
2018-07-02T03:05:53.191Z,0.80
2018-07-02T03:08:23.107Z,0.95
2018-07-02T03:10:53.002Z,0.90
2018-07-02T03:13:22.931Z,0.90
2018-07-02T03:15:52.810Z,1.30
2018-07-02T03:18:22.502Z,0.72
2018-07-02T03:20:52.440Z,0.98
2018-07-02T03:23:22.331Z,0.98
2018-07-02T03:25:52.005Z,1.32
2018-07-02T03:28:21.914Z,0.90
2018-07-02T03:30:51.783Z,1.10
2018-07-02T03:33:21.690Z,1.07
2018-07-02T03:35:51.556Z,0.72
2018-07-02T03:38:21.495Z,0.65
2018-07-02T03:40:51.418Z,1.00
2018-07-02T03:43:21.134Z,0.90
2018-07-02T03:45:51.032Z,0.88
2018-07-02T03:48:20.934Z,0.80
2018-07-02T03:50:51.171Z,0.88
2018-07-02T03:53:21.142Z,0.80
2018-07-02T03:55:51.118Z,0.80
2018-07-02T03:58:21.002Z,0.80
2018-07-02T04:00:50.671Z,1.00
2018-07-02T04:03:20.574Z,0.82
2018-07-02T04:05:50.442Z,0.88
2018-07-02T04:08:20.344Z,1.17
2018-07-02T04:10:50.266Z,1.10
2018-07-02T04:13:20.143Z,0.72
2018-07-02T04:15:50.009Z,0.90
2018-07-02T04:18:19.891Z,1.00
2018-07-02T04:20:49.784Z,0.85
2018-07-02T04:23:19.475Z,0.88
2018-07-02T04:25:49.405Z,0.90
2018-07-02T04:28:19.247Z,1.07
2018-07-02T04:30:49.383Z,0.70
2018-07-02T04:33:19.023Z,0.70
2018-07-02T04:35:48.939Z,0.85
2018-07-02T04:38:18.874Z,1.12
2018-07-02T04:40:48.817Z,1.32
2018-07-02T04:43:18.743Z,1.10
2018-07-02T04:45:54.283Z,0.80
2018-07-02T04:48:24.183Z,0.90
2018-07-02T04:50:53.762Z,0.93
2018-07-02T04:53:23.563Z,0.80
2018-07-02T04:55:53.454Z,0.98
2018-07-02T04:58:23.314Z,0.72
2018-07-02T05:00:53.220Z,0.70
2018-07-02T05:03:22.899Z,1.00
2018-07-02T05:05:52.574Z,1.17
2018-07-02T05:08:22.234Z,0.85
2018-07-02T05:10:51.942Z,1.05
2018-07-02T05:13:21.931Z,0.82
2018-07-02T05:15:51.635Z,0.90
2018-07-02T05:18:21.361Z,1.00
2018-07-02T05:20:51.333Z,0.78
2018-07-02T05:23:21.013Z,0.82
2018-07-02T05:25:50.694Z,0.95
2018-07-02T05:28:20.343Z,0.80
2018-07-02T05:30:50.050Z,1.15
2018-07-02T05:33:19.754Z,1.15
2018-07-02T05:35:49.546Z,0.80
2018-07-02T05:38:19.229Z,1.02
2018-07-02T05:40:48.913Z,0.90
2018-07-02T05:43:18.590Z,0.80
2018-07-02T05:45:51.123Z,0.88
2018-07-02T05:48:20.872Z,0.90
2018-07-02T05:50:50.563Z,0.82
2018-07-02T05:53:20.253Z,0.70
2018-07-02T05:55:49.948Z,0.98
2018-07-02T05:58:19.627Z,0.80
2018-07-02T06:00:49.324Z,0.88
2018-07-02T06:03:19.007Z,0.80
2018-07-02T06:05:49.578Z,1.00
2018-07-02T06:08:24.955Z,0.90
2018-07-02T06:11:00.312Z,0.72
2018-07-02T06:13:30.039Z,1.20
2018-07-02T06:15:59.760Z,0.80
2018-07-02T06:18:29.495Z,0.68
2018-07-02T06:20:59.868Z,1.15
2018-07-02T06:23:29.635Z,1.00
2018-07-02T06:25:59.355Z,0.78
2018-07-02T06:28:29.055Z,1.02
2018-07-02T06:30:58.778Z,0.98
2018-07-02T06:33:28.575Z,0.80
2018-07-02T06:35:58.763Z,0.78
2018-07-02T06:38:28.463Z,0.80
2018-07-02T06:40:58.176Z,0.90
2018-07-02T06:43:27.887Z,0.90
2018-07-02T06:45:57.620Z,0.93
2018-07-02T06:48:27.324Z,0.82
2018-07-02T06:50:57.132Z,0.80
2018-07-02T06:53:26.843Z,1.12
2018-07-02T06:55:56.583Z,0.98
2018-07-02T06:58:26.264Z,0.90
2018-07-02T07:00:56.139Z,1.05
2018-07-02T07:03:25.892Z,1.00
2018-07-02T07:05:55.637Z,0.80
2018-07-02T07:08:25.378Z,0.98
2018-07-02T07:10:55.115Z,0.82
2018-07-02T07:13:24.783Z,0.95
2018-07-02T07:15:54.503Z,0.90
2018-07-02T07:18:24.167Z,0.90
2018-07-02T07:20:53.864Z,0.80
2018-07-02T07:23:23.659Z,0.88
2018-07-02T07:25:53.264Z,0.70
2018-07-02T07:28:23.131Z,0.70
2018-07-02T07:30:52.837Z,0.90
2018-07-02T07:33:22.615Z,1.12
2018-07-02T07:35:52.642Z,1.02
2018-07-02T07:38:22.352Z,1.00
2018-07-02T07:40:52.072Z,0.70
2018-07-02T07:43:21.818Z,1.22
2018-07-02T07:45:51.514Z,1.05
2018-07-02T07:48:21.660Z,1.00
2018-07-02T07:50:51.324Z,0.88
2018-07-02T07:53:21.368Z,1.57
2018-07-02T07:55:51.035Z,0.90
2018-07-02T07:58:20.778Z,1.12
2018-07-02T08:00:50.545Z,0.80
2018-07-02T08:03:20.275Z,0.90
2018-07-02T08:05:50.043Z,1.45
2018-07-02T08:08:19.772Z,1.10
2018-07-02T08:10:49.526Z,1.12
2018-07-02T08:13:19.283Z,0.98
2018-07-02T08:15:49.139Z,0.80
2018-07-02T08:18:18.905Z,1.02
2018-07-02T08:20:48.943Z,0.90
2018-07-02T08:23:18.672Z,0.72
2018-07-02T08:25:48.384Z,1.10
2018-07-02T08:28:18.087Z,1.00
2018-07-02T08:30:47.811Z,0.85
2018-07-02T08:33:17.570Z,0.70
2018-07-02T08:35:47.475Z,0.80
2018-07-02T08:38:17.180Z,0.78
2018-07-02T08:40:46.931Z,1.00
2018-07-02T08:43:16.720Z,1.17
2018-07-02T08:45:50.406Z,0.90
2018-07-02T08:48:20.172Z,1.00
2018-07-02T08:50:49.896Z,1.00
2018-07-02T08:53:19.616Z,1.10
2018-07-02T08:55:49.343Z,0.93
2018-07-02T08:58:19.152Z,0.90
2018-07-02T09:00:49.082Z,1.10
2018-07-02T09:03:18.868Z,0.90
2018-07-02T09:05:48.607Z,0.90
2018-07-02T09:08:18.329Z,1.47
2018-07-02T09:10:48.055Z,0.80
2018-07-02T09:13:17.762Z,1.00
2018-07-02T09:15:47.471Z,0.62
2018-07-02T09:18:17.312Z,0.90
2018-07-02T09:20:47.004Z,1.22
2018-07-02T09:23:16.732Z,1.02
2018-07-02T09:25:46.406Z,0.98
2018-07-02T09:28:16.187Z,1.10
2018-07-02T09:30:45.935Z,0.90
2018-07-02T09:33:15.635Z,1.02
2018-07-02T09:35:45.323Z,0.93
2018-07-02T09:38:15.027Z,0.80
2018-07-02T09:40:44.695Z,1.10
2018-07-02T09:43:14.403Z,1.17
2018-07-02T09:45:49.105Z,0.90
2018-07-02T09:48:18.816Z,0.93
2018-07-02T09:50:48.161Z,0.80
2018-07-02T09:53:17.922Z,1.02
2018-07-02T09:55:49.427Z,0.70
2018-07-02T09:58:19.297Z,0.62
2018-07-02T10:00:48.904Z,0.90
2018-07-02T10:03:19.922Z,0.70
2018-07-02T10:05:50.302Z,0.95
2018-07-02T10:08:19.979Z,0.88
2018-07-02T10:10:49.675Z,0.80
2018-07-02T10:13:19.388Z,0.80
2018-07-02T10:15:49.071Z,0.90
2018-07-02T10:18:18.823Z,1.00
2018-07-02T10:20:48.548Z,1.15
2018-07-02T10:23:18.302Z,0.85
2018-07-02T10:25:48.024Z,0.98
2018-07-02T10:28:17.940Z,0.80
2018-07-02T10:30:47.699Z,0.98
2018-07-02T10:33:17.611Z,0.75
2018-07-02T10:35:47.299Z,0.88
2018-07-02T10:38:17.189Z,0.80
2018-07-02T10:40:46.948Z,0.78
2018-07-02T10:43:16.659Z,0.70
2018-07-02T10:45:49.304Z,0.70
2018-07-02T10:48:19.010Z,0.72
2018-07-02T10:50:48.700Z,0.90
2018-07-02T10:53:18.440Z,0.80
2018-07-02T10:55:48.161Z,0.98
2018-07-02T10:58:18.155Z,0.90
2018-07-02T11:00:47.840Z,0.90
2018-07-02T11:03:17.910Z,0.75
2018-07-02T11:05:47.791Z,0.50
2018-07-02T11:08:17.714Z,0.95
2018-07-02T11:10:47.511Z,0.82
2018-07-02T11:13:17.220Z,0.80
2018-07-02T11:15:46.934Z,0.82
2018-07-02T11:18:16.656Z,0.80
2018-07-02T11:20:46.387Z,1.00
2018-07-02T11:23:16.092Z,1.00
2018-07-02T11:25:45.860Z,0.70
2018-07-02T11:28:15.578Z,0.70
2018-07-02T11:30:45.320Z,0.90
2018-07-02T11:33:15.021Z,0.72
2018-07-02T11:35:44.778Z,0.88
2018-07-02T11:38:14.489Z,0.70
2018-07-02T11:40:44.207Z,1.00
2018-07-02T11:43:13.950Z,0.75
2018-07-02T11:45:49.539Z,0.80
2018-07-02T11:48:19.240Z,0.70
2018-07-02T11:50:48.954Z,1.40
2018-07-02T11:53:18.672Z,1.15
2018-07-02T11:55:48.376Z,0.90
2018-07-02T11:58:18.084Z,0.80
2018-07-02T12:00:48.138Z,1.00
2018-07-02T12:03:17.835Z,0.80
2018-07-02T12:05:47.552Z,0.70
2018-07-02T12:08:17.249Z,0.60
2018-07-02T12:10:46.986Z,0.80
2018-07-02T12:13:16.699Z,0.75
2018-07-02T12:15:46.399Z,0.90
2018-07-02T12:18:16.530Z,0.88
2018-07-02T12:20:46.243Z,0.75
2018-07-02T12:23:15.947Z,0.80
2018-07-02T12:25:45.681Z,0.70
2018-07-02T12:28:15.387Z,0.90
2018-07-02T12:30:45.468Z,0.65
2018-07-02T12:33:15.144Z,0.80
2018-07-02T12:35:44.924Z,0.75
2018-07-02T12:38:14.935Z,0.60
2018-07-02T12:40:44.660Z,0.60
2018-07-02T12:43:14.367Z,0.68
2018-07-02T12:45:51.098Z,1.05
2018-07-02T12:48:20.859Z,0.90
2018-07-02T12:50:50.560Z,0.60
2018-07-02T12:53:20.272Z,0.50
2018-07-02T12:55:49.980Z,0.62
2018-07-02T12:58:19.656Z,0.80
2018-07-02T13:00:49.504Z,0.80
2018-07-02T13:03:19.224Z,0.62
2018-07-02T13:05:49.059Z,0.70
2018-07-02T13:08:18.762Z,0.82
2018-07-02T13:10:48.622Z,1.00
2018-07-02T13:13:18.330Z,0.60
2018-07-02T13:15:48.092Z,0.70
2018-07-02T13:18:19.267Z,0.70
2018-07-02T13:20:48.672Z,0.53
2018-07-02T13:23:18.535Z,0.55
2018-07-02T13:25:48.248Z,0.70
2018-07-02T13:28:18.048Z,0.75
2018-07-02T13:30:48.848Z,0.55
2018-07-02T13:33:18.559Z,0.78
2018-07-02T13:35:48.347Z,0.80
2018-07-02T13:38:18.144Z,0.80
2018-07-02T13:40:47.896Z,1.10
2018-07-02T13:43:17.592Z,0.75
2018-07-02T13:45:49.976Z,0.63
2018-07-02T13:48:19.688Z,0.80
2018-07-02T13:50:49.418Z,0.80
2018-07-02T13:53:19.301Z,0.88
2018-07-02T13:55:49.128Z,0.85
2018-07-02T13:58:18.819Z,0.60
2018-07-02T14:00:48.223Z,0.67
2018-07-02T14:03:17.999Z,1.00
2018-07-02T14:05:47.703Z,0.70
2018-07-02T14:08:17.183Z,0.50
2018-07-02T14:10:46.907Z,0.88
2018-07-02T14:13:16.655Z,0.95
2018-07-02T14:15:46.384Z,0.50
2018-07-02T14:18:16.127Z,0.60
2018-07-02T14:20:46.175Z,1.20
2018-07-02T14:23:15.944Z,1.02
2018-07-02T14:25:45.663Z,0.80
2018-07-02T14:28:15.412Z,0.60
2018-07-02T14:30:45.179Z,0.80
2018-07-02T14:33:14.922Z,0.70
2018-07-02T14:35:44.514Z,0.60
2018-07-02T14:38:14.223Z,0.60
2018-07-02T14:40:44.239Z,0.68
2018-07-02T14:43:13.963Z,0.57
2018-07-02T14:45:49.359Z,0.80
2018-07-02T14:48:19.123Z,0.72
2018-07-02T14:50:48.815Z,0.80
2018-07-02T14:53:18.548Z,0.70
2018-07-02T14:55:48.233Z,0.60
2018-07-02T14:58:18.007Z,0.65
2018-07-02T15:00:47.403Z,0.60
2018-07-02T15:03:17.131Z,0.60
2018-07-02T15:05:46.709Z,0.80
2018-07-02T15:08:16.130Z,0.60
2018-07-02T15:10:45.807Z,0.62
2018-07-02T15:13:15.500Z,0.50
2018-07-02T15:15:45.159Z,0.80
2018-07-02T15:18:16.057Z,0.50
2018-07-02T15:20:45.943Z,0.75
2018-07-02T15:23:15.504Z,0.67
2018-07-02T15:25:45.634Z,0.60
2018-07-02T15:28:15.319Z,0.65
2018-07-02T15:30:44.800Z,0.73
2018-07-02T15:33:14.627Z,0.50
2018-07-02T15:35:44.037Z,0.50
2018-07-02T15:38:13.887Z,0.53
2018-07-02T15:40:43.582Z,0.70
2018-07-02T15:43:13.259Z,0.70
2018-07-02T15:45:48.243Z,0.70
2018-07-02T15:48:17.955Z,0.80
2018-07-02T15:50:47.791Z,0.93
2018-07-02T15:53:17.544Z,1.20
2018-07-02T15:55:47.204Z,0.57
2018-07-02T15:58:16.920Z,0.70
2018-07-02T16:00:46.370Z,0.50
2018-07-02T16:03:16.189Z,0.57
2018-07-02T16:05:45.538Z,0.60
2018-07-02T16:08:15.583Z,0.65
2018-07-02T16:10:45.266Z,0.75
2018-07-02T16:13:14.979Z,0.50
2018-07-02T16:15:44.375Z,0.50
2018-07-02T16:18:14.139Z,0.80
2018-07-02T16:20:43.560Z,0.60
2018-07-02T16:23:16.461Z,0.62
2018-07-02T16:25:46.680Z,0.53
2018-07-02T16:28:16.388Z,0.70
2018-07-02T16:30:46.052Z,0.80
2018-07-02T16:33:15.755Z,0.75
2018-07-02T16:35:45.456Z,0.72
2018-07-02T16:38:16.272Z,0.95
2018-07-02T16:40:46.182Z,0.60
2018-07-02T16:43:15.664Z,0.63
2018-07-02T16:45:50.138Z,0.70
2018-07-02T16:48:20.186Z,0.65
2018-07-02T16:50:50.185Z,0.60
2018-07-02T16:53:20.074Z,0.72
2018-07-02T16:55:50.093Z,0.72
2018-07-02T16:58:19.955Z,0.60
2018-07-02T17:00:49.392Z,0.70
2018-07-02T17:03:20.155Z,0.80
2018-07-02T17:05:50.288Z,1.02
2018-07-02T17:08:20.399Z,0.57
2018-07-02T17:10:49.840Z,0.60
2018-07-02T17:13:19.604Z,0.70
2018-07-02T17:15:49.493Z,0.85
2018-07-02T17:18:19.287Z,0.70
2018-07-02T17:20:48.730Z,0.63
2018-07-02T17:23:18.492Z,0.50
2018-07-02T17:25:48.272Z,0.50
2018-07-02T17:28:17.702Z,0.80
2018-07-02T17:30:47.763Z,0.70
2018-07-02T17:33:17.195Z,0.70
2018-07-02T17:35:46.984Z,0.70
2018-07-02T17:38:16.766Z,0.68
2018-07-02T17:40:46.476Z,0.50
2018-07-02T17:43:16.226Z,0.70
2018-07-02T17:45:48.506Z,0.63
2018-07-02T17:48:17.894Z,0.70
2018-07-02T17:50:47.600Z,1.00
2018-07-02T17:53:18.020Z,0.62
2018-07-02T17:55:47.755Z,0.78
2018-07-02T17:58:17.160Z,0.73
2018-07-02T18:00:46.899Z,0.60
2018-07-02T18:03:16.334Z,0.60
2018-07-02T18:05:46.385Z,0.70
2018-07-02T18:08:16.107Z,0.65
2018-07-02T18:10:45.839Z,0.68
2018-07-02T18:13:15.740Z,0.60
2018-07-02T18:15:45.571Z,0.50
2018-07-02T18:18:15.268Z,0.60
2018-07-02T18:20:44.706Z,0.88
2018-07-02T18:23:14.439Z,0.88
2018-07-02T18:25:44.194Z,1.00
2018-07-02T18:28:13.927Z,0.60
2018-07-02T18:30:43.991Z,0.70
2018-07-02T18:33:14.044Z,0.60
2018-07-02T18:35:43.859Z,0.68
2018-07-02T18:38:15.104Z,0.80
2018-07-02T18:40:44.799Z,0.82
2018-07-02T18:43:14.659Z,0.68
2018-07-02T18:45:50.515Z,0.95
2018-07-02T18:48:20.707Z,0.72
2018-07-02T18:50:50.419Z,0.85
2018-07-02T18:53:20.180Z,1.10
2018-07-02T18:55:49.880Z,0.82
2018-07-02T18:58:29.752Z,0.72
2018-07-02T19:00:59.806Z,0.62
2018-07-02T19:03:29.510Z,0.90
2018-07-02T19:05:59.245Z,0.70
2018-07-02T19:08:28.962Z,0.70
2018-07-02T19:10:59.692Z,0.70
2018-07-02T19:13:29.726Z,1.25
2018-07-02T19:16:01.703Z,1.20
2018-07-02T19:18:31.752Z,1.00
2018-07-02T19:21:01.613Z,0.45
2018-07-02T19:23:31.467Z,0.80
2018-07-02T19:26:02.590Z,0.65
2018-07-02T19:28:32.591Z,0.72
2018-07-02T19:31:05.465Z,1.90
2018-07-02T19:33:35.724Z,0.88
2018-07-02T19:36:06.687Z,0.50
2018-07-02T19:38:37.179Z,1.00
2018-07-02T19:41:09.753Z,0.95
2018-07-02T19:43:39.621Z,1.30
2018-07-02T19:46:10.818Z,0.80
2018-07-02T19:48:40.818Z,0.80
2018-07-02T19:51:10.855Z,1.02
2018-07-02T19:53:40.849Z,1.00
2018-07-02T19:56:11.407Z,0.80
2018-07-02T19:58:41.224Z,0.88
2018-07-02T20:01:10.904Z,0.70
2018-07-02T20:03:40.622Z,0.90
2018-07-02T20:06:10.328Z,0.68
2018-07-02T20:08:39.994Z,0.82
2018-07-02T20:11:09.715Z,1.00
2018-07-02T20:13:39.463Z,0.98
2018-07-02T20:16:09.709Z,1.07
2018-07-02T20:18:39.722Z,0.80
2018-07-02T20:21:09.790Z,0.90
2018-07-02T20:23:39.487Z,0.72
2018-07-02T20:26:09.900Z,1.20
2018-07-02T20:28:39.595Z,1.30
2018-07-02T20:31:09.319Z,1.12
2018-07-02T20:33:38.986Z,1.57
2018-07-02T20:36:08.699Z,1.20
2018-07-02T20:38:38.435Z,1.47
2018-07-02T20:41:08.193Z,1.20
2018-07-02T20:43:37.887Z,1.60
2018-07-02T20:46:07.619Z,1.82
2018-07-02T20:48:37.335Z,1.40
2018-07-02T20:51:07.035Z,1.32
2018-07-02T20:53:36.750Z,1.35
2018-07-02T20:56:06.774Z,1.17
2018-07-02T20:58:36.631Z,1.37
2018-07-02T21:01:06.447Z,1.30
2018-07-02T21:03:36.266Z,1.10
2018-07-02T21:06:07.100Z,1.20
2018-07-02T21:08:36.802Z,1.02
2018-07-02T21:11:06.515Z,1.22
2018-07-02T21:13:36.237Z,1.37
2018-07-02T21:16:06.049Z,0.98
2018-07-02T21:18:35.879Z,1.20
2018-07-02T21:21:05.621Z,1.22
2018-07-02T21:23:35.319Z,1.30
2018-07-02T21:26:05.339Z,1.40
2018-07-02T21:28:35.399Z,1.22
2018-07-02T21:31:05.967Z,1.17
2018-07-02T21:33:36.027Z,1.67
2018-07-02T21:36:05.859Z,1.50
2018-07-02T21:38:35.919Z,1.02
2018-07-02T21:41:05.631Z,1.20
2018-07-02T21:43:35.359Z,1.17
2018-07-02T21:46:05.148Z,0.98
2018-07-02T21:48:34.879Z,1.05
2018-07-02T21:51:04.603Z,1.25
2018-07-02T21:53:34.547Z,1.20
2018-07-02T21:56:04.312Z,1.20
2018-07-02T21:58:33.994Z,1.30
2018-07-02T22:01:03.763Z,2.02
2018-07-02T22:03:33.157Z,2.30
2018-07-02T22:06:03.177Z,1.40
2018-07-02T22:08:33.214Z,1.52
2018-07-02T22:11:02.992Z,1.37
2018-07-02T22:13:32.866Z,1.60
2018-07-02T22:16:02.771Z,1.50
2018-07-02T22:18:32.527Z,1.40
2018-07-02T22:21:02.379Z,1.52
2018-07-02T22:23:33.223Z,1.47
2018-07-02T22:26:03.259Z,1.52
2018-07-02T22:28:32.955Z,1.50
2018-07-02T22:31:02.703Z,1.45
2018-07-02T22:33:33.633Z,1.30
2018-07-02T22:36:03.391Z,1.10
2018-07-02T22:38:33.116Z,1.37
2018-07-02T22:41:02.887Z,1.20
2018-07-02T22:43:32.700Z,1.32
2018-07-02T22:46:02.534Z,1.10
2018-07-02T22:48:32.207Z,1.20
2018-07-02T22:51:01.927Z,1.17
2018-07-02T22:53:31.611Z,1.50
2018-07-02T22:56:03.730Z,1.40
2018-07-02T22:58:33.426Z,1.60
2018-07-02T23:01:03.212Z,1.90
2018-07-02T23:03:32.887Z,1.57
2018-07-02T23:06:02.622Z,1.50
2018-07-02T23:08:32.330Z,1.60
2018-07-02T23:11:02.074Z,1.40
2018-07-02T23:13:31.763Z,1.60
2018-07-02T23:16:01.459Z,1.65
2018-07-02T23:18:32.206Z,1.90
2018-07-02T23:21:01.923Z,1.70
2018-07-02T23:23:31.937Z,1.60
2018-07-02T23:26:02.044Z,1.80
2018-07-02T23:28:31.727Z,1.60
2018-07-02T23:31:01.435Z,1.70
2018-07-02T23:33:31.160Z,1.72
2018-07-02T23:36:00.864Z,1.80
2018-07-02T23:38:30.566Z,2.00
2018-07-02T23:41:00.434Z,2.08
2018-07-02T23:43:30.119Z,2.20
2018-07-02T23:45:59.836Z,1.90
2018-07-02T23:48:29.531Z,1.92
2018-07-02T23:50:59.256Z,2.20
2018-07-02T23:53:28.935Z,3.02
2018-07-02T23:55:58.639Z,2.60
2018-07-02T23:58:28.314Z,2.65
